Time;durP1;ratioP1;P1;durP2;ratioP2;P2;SDS_P1;SDS_P2;PMS_P1;PMS_P2;Temp;Humidity;BMP_temperature;BMP_pressure;BME280_temperature;BME280_humidity;BME280_pressure;Samples;Min_cycle;Max_cycle;Signal;HPM_P1;HPM_P2
2024/02/11 00:02:02;;;;;;;35.37;20.83;;;10.20;90.30;;;;;;5021960;28;20500;-71
2024/02/11 00:04:28;;;;;;;38.77;20.17;;;10.20;90.20;;;;;;5021413;28;20495;-71
2024/02/11 00:06:54;;;;;;;38.10;20.10;;;10.20;90.30;;;;;;5028843;28;20515;-73
2024/02/11 00:09:20;;;;;;;41.37;20.77;;;10.20;90.40;;;;;;5028051;28;20189;-72
2024/02/11 00:11:46;;;;;;;39.10;20.60;;;10.30;90.50;;;;;;5022818;28;21321;-72
2024/02/11 00:14:11;;;;;;;36.67;20.70;;;10.30;90.50;;;;;;5021802;28;20439;-72
2024/02/11 00:16:37;;;;;;;41.60;20.73;;;10.40;90.60;;;;;;5028113;28;20780;-71
2024/02/11 00:19:03;;;;;;;38.90;21.20;;;10.40;90.60;;;;;;5027466;28;20996;-72
2024/02/11 00:21:28;;;;;;;44.80;25.10;;;10.40;90.60;;;;;;5024124;28;20741;-72
2024/02/11 00:23:54;;;;;;;47.90;24.60;;;10.20;90.50;;;;;;5017274;28;20188;-72
2024/02/11 00:26:19;;;;;;;38.13;21.40;;;10.00;90.40;;;;;;5027812;28;20189;-71
2024/02/11 00:28:45;;;;;;;47.00;24.67;;;10.00;90.60;;;;;;5028127;28;20193;-72
2024/02/11 00:31:12;;;;;;;48.07;24.67;;;10.10;90.80;;;;;;5023136;28;20689;-72
2024/02/11 00:33:39;;;;;;;44.20;22.40;;;10.10;90.80;;;;;;5019801;28;20263;-72
2024/02/11 00:36:05;;;;;;;40.77;20.37;;;10.00;90.90;;;;;;5027525;28;20776;-71
2024/02/11 00:38:31;;;;;;;37.10;19.90;;;10.10;90.90;;;;;;5028342;28;20428;-72
2024/02/11 00:40:57;;;;;;;35.33;19.70;;;10.10;90.90;;;;;;5020422;28;20651;-72
2024/02/11 00:43:22;;;;;;;35.03;18.40;;;10.10;90.90;;;;;;5029888;28;20215;-72
2024/02/11 00:45:48;;;;;;;37.73;19.20;;;10.20;90.80;;;;;;5025033;28;20177;-72
2024/02/11 00:48:14;;;;;;;37.20;18.47;;;10.20;90.90;;;;;;5027187;28;20192;-71
2024/02/11 00:50:40;;;;;;;32.00;18.37;;;10.20;90.80;;;;;;5021605;28;20216;-71
2024/02/11 00:53:06;;;;;;;38.67;19.20;;;10.20;90.90;;;;;;5021731;28;20235;-71
2024/02/11 00:55:35;;;;;;;37.33;18.60;;;10.20;90.90;;;;;;5028649;28;20581;-71
2024/02/11 00:58:04;;;;;;;33.63;17.60;;;10.30;90.90;;;;;;5028755;28;20229;-73
2024/02/11 01:00:31;;;;;;;39.50;21.50;;;10.30;90.90;;;;;;5026426;28;20471;-72
2024/02/11 01:02:57;;;;;;;35.83;18.73;;;10.20;90.80;;;;;;5023932;28;20582;-72
2024/02/11 01:05:22;;;;;;;33.10;18.83;;;10.20;90.90;;;;;;5028194;28;20988;-71
2024/02/11 01:07:50;;;;;;;39.73;19.73;;;10.20;90.90;;;;;;5029949;28;20555;-72
2024/02/11 01:10:17;;;;;;;37.23;20.27;;;10.30;90.90;;;;;;5026349;28;20185;-72
2024/02/11 01:12:45;;;;;;;38.83;20.17;;;10.20;90.80;;;;;;5023334;28;20435;-72
2024/02/11 01:15:13;;;;;;;33.57;17.80;;;10.20;90.80;;;;;;5025014;28;20412;-73
2024/02/11 01:17:40;;;;;;;32.87;18.60;;;10.20;90.90;;;;;;5031862;28;20517;-72
2024/02/11 01:20:09;;;;;;;33.43;17.67;;;10.30;90.80;;;;;;5027445;28;20853;-72
2024/02/11 01:22:34;;;;;;;41.57;21.17;;;10.30;90.80;;;;;;5027871;28;20949;-71
2024/02/11 01:25:00;;;;;;;35.00;20.03;;;10.30;90.80;;;;;;5024097;28;20443;-71
2024/02/11 01:27:26;;;;;;;39.83;20.77;;;10.20;90.80;;;;;;5029737;28;20662;-72
2024/02/11 01:29:52;;;;;;;39.50;21.57;;;10.30;90.80;;;;;;5028990;28;20789;-72
2024/02/11 01:32:17;;;;;;;35.00;18.80;;;10.30;90.80;;;;;;5023988;28;20221;-73
2024/02/11 01:34:43;;;;;;;35.40;19.10;;;10.20;90.70;;;;;;5023812;28;20428;-72
2024/02/11 01:37:08;;;;;;;38.63;19.17;;;10.20;90.70;;;;;;5029380;28;20221;-72
2024/02/11 01:39:34;;;;;;;41.70;18.87;;;10.20;90.80;;;;;;5026109;28;20174;-71
2024/02/11 01:42:02;;;;;;;41.57;20.33;;;10.20;90.80;;;;;;5025415;28;20830;-72
2024/02/11 01:44:28;;;;;;;30.60;16.90;;;10.20;90.80;;;;;;5019478;28;20508;-72
2024/02/11 01:46:53;;;;;;;42.73;20.30;;;10.20;90.80;;;;;;5029349;28;20432;-72
2024/02/11 01:49:22;;;;;;;27.37;14.87;;;10.30;90.80;;;;;;5028606;28;20922;-72
2024/02/11 01:51:48;;;;;;;30.30;17.10;;;10.30;90.80;;;;;;5021166;28;20206;-72
2024/02/11 01:54:16;;;;;;;33.87;16.97;;;10.30;90.80;;;;;;5022989;28;20810;-73
2024/02/11 01:56:42;;;;;;;36.63;18.77;;;10.30;90.70;;;;;;5029620;28;20474;-71
2024/02/11 01:59:08;;;;;;;28.23;15.77;;;10.30;90.60;;;;;;5016834;28;20949;-71
2024/02/11 02:01:35;;;;;;;36.07;17.80;;;10.20;90.50;;;;;;5023867;28;20463;-72
2024/02/11 02:04:00;;;;;;;28.60;15.10;;;10.30;90.60;;;;;;5022053;28;20465;-72
2024/02/11 02:06:27;;;;;;;28.70;16.47;;;10.30;90.60;;;;;;5029261;28;20440;-73
2024/02/11 02:08:53;;;;;;;35.97;17.57;;;10.30;90.60;;;;;;5029786;28;20177;-73
2024/02/11 02:11:19;;;;;;;33.77;17.73;;;10.30;90.60;;;;;;5023484;28;20546;-73
2024/02/11 02:13:45;;;;;;;33.97;16.50;;;10.20;90.60;;;;;;5024278;28;20182;-72
2024/02/11 02:16:10;;;;;;;30.63;17.73;;;10.10;90.70;;;;;;5034006;28;20511;-72
2024/02/11 02:18:36;;;;;;;37.30;17.60;;;10.10;90.70;;;;;;5032493;28;20242;-72
2024/02/11 02:21:04;;;;;;;36.93;20.17;;;10.20;90.80;;;;;;5029476;28;20706;-72
2024/02/11 02:23:30;;;;;;;41.90;20.20;;;10.30;90.70;;;;;;5027703;28;20185;-72
2024/02/11 02:25:57;;;;;;;34.73;17.77;;;10.20;90.60;;;;;;5032836;28;20495;-72
2024/02/11 02:28:23;;;;;;;38.77;19.80;;;10.30;90.60;;;;;;5032622;28;20474;-71
2024/02/11 02:30:48;;;;;;;36.63;19.10;;;10.20;90.60;;;;;;5028116;28;21062;-71
2024/02/11 02:33:14;;;;;;;33.20;18.20;;;10.10;90.60;;;;;;5025957;28;20455;-70
2024/02/11 02:35:39;;;;;;;39.73;22.90;;;10.10;90.70;;;;;;5025852;28;20185;-71
2024/02/11 02:38:05;;;;;;;35.20;18.10;;;10.00;90.80;;;;;;5029880;28;20229;-71
2024/02/11 02:40:32;;;;;;;37.53;18.60;;;10.00;90.90;;;;;;5029030;28;20212;-72
2024/02/11 02:42:58;;;;;;;41.07;18.60;;;10.10;91.10;;;;;;5030928;28;20189;-72
2024/02/11 02:45:23;;;;;;;48.50;24.57;;;10.10;91.10;;;;;;5030034;28;20435;-72
2024/02/11 02:47:49;;;;;;;41.73;22.43;;;10.00;91.10;;;;;;5037094;28;20435;-71
2024/02/11 02:50:15;;;;;;;39.23;19.30;;;9.90;91.10;;;;;;5030142;28;20700;-72
2024/02/11 02:52:42;;;;;;;47.97;23.60;;;10.00;91.30;;;;;;5026127;28;20666;-71
2024/02/11 02:55:08;;;;;;;33.80;18.17;;;10.00;91.30;;;;;;5031751;28;20260;-71
2024/02/11 02:57:35;;;;;;;41.50;19.97;;;9.90;91.30;;;;;;5032837;28;21047;-71
2024/02/11 03:00:03;;;;;;;35.33;19.23;;;10.00;91.40;;;;;;5031861;28;20424;-71
2024/02/11 03:02:29;;;;;;;43.03;21.33;;;10.00;91.50;;;;;;5026859;28;20480;-71
2024/02/11 03:04:55;;;;;;;42.40;22.00;;;10.00;91.50;;;;;;5027151;28;20459;-72
2024/02/11 03:07:20;;;;;;;36.83;18.03;;;10.00;91.50;;;;;;5031714;28;20212;-70
2024/02/11 03:09:46;;;;;;;36.30;17.60;;;10.00;91.50;;;;;;5030226;28;20460;-71
2024/02/11 03:12:11;;;;;;;19.37;10.33;;;9.90;91.50;;;;;;5026434;28;20205;-72
2024/02/11 03:14:37;;;;;;;13.30;6.17;;;9.70;91.00;;;;;;5025990;28;20189;-71
2024/02/11 03:17:03;;;;;;;8.17;4.20;;;9.50;90.70;;;;;;5031485;28;20827;-72
2024/02/11 03:19:29;;;;;;;6.87;3.70;;;9.30;90.50;;;;;;5031146;28;20975;-71
2024/02/11 03:21:54;;;;;;;4.63;1.70;;;9.20;90.40;;;;;;5023427;28;20456;-71
2024/02/11 03:24:21;;;;;;;2.07;1.00;;;9.00;90.60;;;;;;5026744;28;20185;-70
2024/02/11 03:26:46;;;;;;;4.10;1.90;;;8.80;90.00;;;;;;5031208;28;20189;-72
2024/02/11 03:29:12;;;;;;;1.67;1.10;;;8.80;89.90;;;;;;5031283;28;20420;-73
2024/02/11 03:31:37;;;;;;;1.93;1.30;;;8.60;89.30;;;;;;5024653;28;20205;-72
2024/02/11 03:34:04;;;;;;;1.77;0.97;;;8.60;89.00;;;;;;5029910;28;20193;-72
2024/02/11 03:36:30;;;;;;;1.27;0.90;;;8.50;88.70;;;;;;5031995;28;20220;-72
2024/02/11 03:38:56;;;;;;;2.07;0.97;;;8.50;88.90;;;;;;5029882;28;20440;-70
2024/02/11 03:41:22;;;;;;;0.90;0.60;;;8.40;88.90;;;;;;5025106;28;20534;-71
2024/02/11 03:43:49;;;;;;;0.80;0.60;;;8.30;88.40;;;;;;5025302;28;20494;-71
2024/02/11 03:46:14;;;;;;;0.80;0.60;;;8.20;87.60;;;;;;5031390;28;20420;-71
2024/02/11 03:48:43;;;;;;;19.10;1.10;;;8.10;87.70;;;;;;5030825;28;20412;-71
2024/02/11 03:51:08;;;;;;;0.90;0.50;;;8.10;88.10;;;;;;5027487;28;20716;-70
2024/02/11 03:53:34;;;;;;;0.70;0.50;;;8.00;88.10;;;;;;5025624;28;20515;-71
2024/02/11 03:56:06;;;;;;;0.80;0.70;;;8.00;88.30;;;;;;5028659;28;20191;-71
2024/02/11 03:58:35;;;;;;;1.00;0.60;;;8.00;88.40;;;;;;5027306;28;20483;-71
2024/02/11 04:01:01;;;;;;;1.20;0.70;;;8.00;88.70;;;;;;5024274;28;20459;-72
2024/02/11 04:03:26;;;;;;;0.73;0.60;;;8.00;88.90;;;;;;5026928;28;20471;-70
2024/02/11 04:05:55;;;;;;;3.63;0.60;;;8.00;89.00;;;;;;5029315;28;20180;-72
2024/02/11 04:08:21;;;;;;;1.23;0.53;;;7.90;88.30;;;;;;5030186;28;20626;-71
2024/02/11 04:10:52;;;;;;;0.70;0.50;;;7.90;88.60;;;;;;5023287;28;20542;-71
2024/02/11 04:13:23;;;;;;;0.80;0.50;;;7.80;88.90;;;;;;5021596;28;20428;-71
2024/02/11 04:16:05;;;;;;;0.60;0.50;;;7.70;88.00;;;;;;5029007;28;20428;-71
2024/02/11 04:18:33;;;;;;;0.70;0.60;;;7.60;88.30;;;;;;5023426;28;20459;-71
2024/02/11 04:20:59;;;;;;;0.60;0.60;;;7.50;88.40;;;;;;5027885;28;20526;-70
2024/02/11 04:23:25;;;;;;;0.70;0.47;;;7.50;89.00;;;;;;5016663;28;20467;-71
2024/02/11 04:25:52;;;;;;;0.90;0.50;;;7.50;88.90;;;;;;5027723;28;20181;-71
2024/02/11 04:28:20;;;;;;;0.90;0.60;;;7.40;89.20;;;;;;5030225;28;20696;-71
2024/02/11 04:30:46;;;;;;;0.70;0.50;;;7.40;89.50;;;;;;5027829;28;20467;-72
2024/02/11 04:33:20;;;;;;;0.60;0.40;;;7.40;89.50;;;;;;5022397;28;20440;-72
2024/02/11 04:35:46;;;;;;;0.80;0.50;;;7.30;89.30;;;;;;5023162;28;20263;-71
2024/02/11 04:38:12;;;;;;;0.87;0.60;;;7.30;89.30;;;;;;5028807;28;20467;-71
2024/02/11 04:40:39;;;;;;;1.43;0.50;;;7.20;89.30;;;;;;5027342;28;20478;-70
2024/02/11 04:43:05;;;;;;;0.97;0.50;;;7.20;89.60;;;;;;5024380;28;21006;-71
2024/02/11 04:45:31;;;;;;;1.23;0.60;;;7.20;89.60;;;;;;5026801;28;20412;-71
2024/02/11 04:48:00;;;;;;;1.10;0.50;;;7.20;89.60;;;;;;5028916;28;20181;-71
2024/02/11 04:50:30;;;;;;;1.00;0.53;;;7.20;89.70;;;;;;5026829;28;20939;-72
2024/02/11 04:52:58;;;;;;;1.20;0.70;;;7.20;89.90;;;;;;5025082;28;20448;-72
2024/02/11 04:55:29;;;;;;;0.70;0.50;;;7.20;90.10;;;;;;5027189;28;20421;-71
2024/02/11 04:57:57;;;;;;;0.80;0.50;;;7.20;90.10;;;;;;5029633;28;20525;-72
2024/02/11 05:00:26;;;;;;;1.37;0.50;;;7.10;90.00;;;;;;5024773;28;20482;-71
2024/02/11 05:02:58;;;;;;;1.40;0.70;;;7.10;90.10;;;;;;5022166;28;20425;-70
2024/02/11 05:05:28;;;;;;;0.80;0.60;;;7.00;90.10;;;;;;5029478;28;20416;-71
2024/02/11 05:08:00;;;;;;;2.07;0.60;;;7.00;90.10;;;;;;5026775;28;20459;-71
2024/02/11 05:10:34;;;;;;;0.70;0.60;;;6.90;90.00;;;;;;5020041;28;20468;-71
2024/02/11 05:13:06;;;;;;;0.80;0.50;;;6.80;89.90;;;;;;5028766;28;20446;-71
2024/02/11 05:15:40;;;;;;;1.13;0.60;;;6.80;90.00;;;;;;5026120;28;20454;-71
2024/02/11 05:18:06;;;;;;;0.80;0.50;;;6.70;90.00;;;;;;5030892;28;20837;-71
2024/02/11 05:20:32;;;;;;;0.90;0.63;;;6.60;90.00;;;;;;5027619;28;20539;-71
2024/02/11 05:22:59;;;;;;;0.80;0.60;;;6.60;89.90;;;;;;5025854;28;20562;-70
2024/02/11 05:25:26;;;;;;;0.80;0.67;;;6.60;89.70;;;;;;5025716;28;20185;-70
2024/02/11 05:27:55;;;;;;;1.77;0.60;;;6.60;89.90;;;;;;5027225;28;20470;-70
2024/02/11 05:30:23;;;;;;;0.90;0.60;;;6.50;89.90;;;;;;5025085;28;20478;-71
2024/02/11 05:32:50;;;;;;;1.37;0.70;;;6.50;89.90;;;;;;5027179;28;20435;-71
2024/02/11 05:35:17;;;;;;;1.70;0.70;;;6.50;90.00;;;;;;5030579;28;20472;-71
2024/02/11 05:37:46;;;;;;;0.70;0.50;;;6.50;90.00;;;;;;5027481;28;20496;-71
2024/02/11 05:40:12;;;;;;;0.77;0.60;;;6.40;89.70;;;;;;5030296;28;20427;-71
2024/02/11 05:42:39;;;;;;;0.60;0.50;;;6.40;89.70;;;;;;5021273;28;20425;-71
2024/02/11 05:45:06;;;;;;;1.00;0.80;;;6.30;89.60;;;;;;5028088;28;20653;-71
2024/02/11 05:47:32;;;;;;;0.87;0.60;;;6.30;89.60;;;;;;5029824;28;20943;-72
2024/02/11 05:49:58;;;;;;;0.87;0.60;;;6.30;89.70;;;;;;5033819;28;20456;-72
2024/02/11 05:52:23;;;;;;;0.77;0.53;;;6.30;89.70;;;;;;5021874;28;20832;-72
2024/02/11 05:54:49;;;;;;;0.90;0.80;;;6.40;89.90;;;;;;5030110;28;20271;-72
2024/02/11 05:57:14;;;;;;;1.00;0.70;;;6.30;89.70;;;;;;5032466;28;20224;-72
2024/02/11 05:59:40;;;;;;;1.13;0.70;;;6.30;89.70;;;;;;5032311;28;20188;-71
2024/02/11 06:02:06;;;;;;;2.50;0.80;;;6.30;89.70;;;;;;5025464;28;20209;-72
2024/02/11 06:04:32;;;;;;;2.63;1.03;;;6.30;89.70;;;;;;5029862;28;20432;-72
2024/02/11 06:06:58;;;;;;;1.27;0.70;;;6.40;89.70;;;;;;5032695;28;20454;-72
2024/02/11 06:09:24;;;;;;;0.90;0.80;;;6.30;89.90;;;;;;5032096;28;20181;-70
2024/02/11 06:11:51;;;;;;;0.90;0.77;;;6.30;90.00;;;;;;5029464;28;20460;-71
2024/02/11 06:14:17;;;;;;;4.10;0.80;;;6.30;89.70;;;;;;5028618;28;20276;-71
2024/02/11 06:16:43;;;;;;;1.83;0.90;;;6.20;89.70;;;;;;5033073;28;20574;-71
2024/02/11 06:19:08;;;;;;;2.00;0.87;;;6.30;90.00;;;;;;5032437;28;20495;-71
2024/02/11 06:21:34;;;;;;;3.30;1.03;;;6.30;89.90;;;;;;5023131;28;20213;-71
2024/02/11 06:24:04;;;;;;;1.10;0.83;;;6.20;89.70;;;;;;5025605;28;20190;-71
2024/02/11 06:26:30;;;;;;;1.33;0.80;;;6.20;89.60;;;;;;5028685;28;20185;-71
2024/02/11 06:28:57;;;;;;;1.20;0.90;;;6.20;89.60;;;;;;5032284;28;20798;-71
2024/02/11 06:31:23;;;;;;;1.83;1.00;;;6.20;89.90;;;;;;5027533;28;20198;-71
2024/02/11 06:33:49;;;;;;;1.70;1.00;;;6.10;89.90;;;;;;5026698;28;20498;-72
2024/02/11 06:36:16;;;;;;;1.63;0.90;;;6.10;89.90;;;;;;5031412;28;20424;-72
2024/02/11 06:38:43;;;;;;;1.80;1.10;;;6.20;90.00;;;;;;5025991;28;20428;-72
2024/02/11 06:41:09;;;;;;;1.63;1.10;;;6.10;89.30;;;;;;5025474;28;20463;-71
2024/02/11 06:43:35;;;;;;;1.90;1.37;;;6.20;89.70;;;;;;5022056;28;21096;-71
2024/02/11 06:46:03;;;;;;;1.63;1.17;;;6.20;89.90;;;;;;5032030;28;20227;-71
2024/02/11 06:48:29;;;;;;;1.77;1.40;;;6.20;89.70;;;;;;5031180;28;20186;-72
2024/02/11 06:50:54;;;;;;;1.57;1.20;;;6.20;89.70;;;;;;5023603;28;20463;-72
2024/02/11 06:53:20;;;;;;;1.80;1.00;;;6.20;89.60;;;;;;5021411;28;21986;-71
2024/02/11 06:55:47;;;;;;;2.73;1.50;;;6.20;89.60;;;;;;5032237;28;20250;-71
2024/02/11 06:58:12;;;;;;;2.57;1.30;;;6.20;89.30;;;;;;5028433;28;20590;-71
2024/02/11 07:00:38;;;;;;;2.93;1.30;;;6.20;89.30;;;;;;5025601;28;20468;-71
2024/02/11 07:03:05;;;;;;;2.90;1.63;;;6.20;88.90;;;;;;5029831;28;20623;-70
2024/02/11 07:05:33;;;;;;;2.57;1.80;;;6.20;88.70;;;;;;5033395;28;20444;-71
2024/02/11 07:08:02;;;;;;;3.57;1.97;;;6.20;88.60;;;;;;5032729;28;20494;-70
2024/02/11 07:10:28;;;;;;;3.00;1.90;;;6.30;88.60;;;;;;5022722;28;20583;-71
2024/02/11 07:12:55;;;;;;;3.60;1.70;;;6.30;88.40;;;;;;5023432;28;20515;-70
2024/02/11 07:15:20;;;;;;;3.37;1.60;;;6.30;88.40;;;;;;5029998;28;20853;-70
2024/02/11 07:17:46;;;;;;;4.30;1.87;;;6.30;88.00;;;;;;5031487;28;20456;-71
2024/02/11 07:20:14;;;;;;;2.53;1.70;;;6.30;88.10;;;;;;5029001;28;20268;-71
2024/02/11 07:22:42;;;;;;;4.20;1.90;;;6.30;88.10;;;;;;5024670;28;20189;-70
2024/02/11 07:25:08;;;;;;;2.23;1.60;;;6.30;87.70;;;;;;5031279;28;20427;-70
2024/02/11 07:27:34;;;;;;;4.23;1.77;;;6.40;88.00;;;;;;5030467;28;20422;-71
2024/02/11 07:30:00;;;;;;;2.93;1.80;;;6.40;87.60;;;;;;5032076;28;20464;-72
2024/02/11 07:32:26;;;;;;;2.93;1.60;;;6.40;87.60;;;;;;5024455;28;20484;-72
2024/02/11 07:34:56;;;;;;;7.00;2.80;;;6.50;87.40;;;;;;5026209;28;20260;-71
2024/02/11 07:37:22;;;;;;;3.73;2.37;;;6.40;87.30;;;;;;5031367;28;20233;-71
2024/02/11 07:39:48;;;;;;;2.67;1.97;;;6.50;87.60;;;;;;5030932;28;20473;-72
2024/02/11 07:42:15;;;;;;;4.77;2.17;;;6.50;87.80;;;;;;5025607;28;20459;-72
2024/02/11 07:44:40;;;;;;;2.73;2.10;;;6.50;87.80;;;;;;5027228;28;20464;-71
2024/02/11 07:47:09;;;;;;;5.50;2.57;;;6.50;88.00;;;;;;5031267;28;21007;-71
2024/02/11 07:49:36;;;;;;;6.23;3.40;;;6.50;88.10;;;;;;5031281;28;20507;-72
2024/02/11 07:52:02;;;;;;;6.53;3.17;;;6.50;88.00;;;;;;5026027;28;20466;-72
2024/02/11 07:54:28;;;;;;;8.17;3.50;;;6.60;88.00;;;;;;5020476;28;20424;-72
2024/02/11 07:56:54;;;;;;;5.33;3.40;;;6.60;87.80;;;;;;5024999;28;20471;-72
2024/02/11 07:59:21;;;;;;;5.50;3.00;;;6.60;87.70;;;;;;5031405;28;20182;-72
2024/02/11 08:01:47;;;;;;;7.17;3.93;;;6.60;87.80;;;;;;5022247;28;20479;-73
2024/02/11 08:04:16;;;;;;;4.90;3.07;;;6.70;87.80;;;;;;5021908;28;20435;-72
2024/02/11 08:06:42;;;;;;;7.00;3.70;;;6.70;87.80;;;;;;5023867;28;20182;-71
2024/02/11 08:09:09;;;;;;;8.53;4.30;;;6.70;87.80;;;;;;5028864;28;20628;-71
2024/02/11 08:11:35;;;;;;;13.10;3.50;;;6.70;88.00;;;;;;5022861;28;20922;-72
2024/02/11 08:14:01;;;;;;;10.27;3.60;;;6.80;87.70;;;;;;5026306;28;20423;-72
2024/02/11 08:16:26;;;;;;;8.87;4.10;;;6.80;87.40;;;;;;5024861;28;20872;-72
2024/02/11 08:18:56;;;;;;;21.43;4.83;;;6.90;87.40;;;;;;5025511;28;20185;-76
2024/02/11 08:21:22;;;;;;;10.00;3.73;;;6.90;87.10;;;;;;5019450;28;20325;-74
2024/02/11 08:23:48;;;;;;;9.00;4.80;;;7.00;87.10;;;;;;5023532;28;21000;-72
2024/02/11 08:26:14;;;;;;;9.47;4.47;;;7.00;87.40;;;;;;5032776;28;20220;-75
2024/02/11 08:28:40;;;;;;;12.47;5.13;;;7.10;86.90;;;;;;5029186;28;20450;-73
2024/02/11 08:31:05;;;;;;;9.20;4.80;;;7.10;86.80;;;;;;5023749;28;20998;-72
2024/02/11 08:33:32;;;;;;;8.77;5.03;;;7.20;86.60;;;;;;5020730;28;20204;-74
2024/02/11 08:35:57;;;;;;;8.30;4.40;;;7.20;86.20;;;;;;5028161;28;20238;-72
2024/02/11 08:38:23;;;;;;;13.80;4.53;;;7.30;86.20;;;;;;5029937;28;20471;-73
2024/02/11 08:40:49;;;;;;;8.53;4.60;;;7.30;85.90;;;;;;5026514;28;20324;-74
2024/02/11 08:43:14;;;;;;;10.63;5.20;;;7.40;86.00;;;;;;5023267;28;20177;-73
2024/02/11 08:45:40;;;;;;;9.03;4.40;;;7.30;85.70;;;;;;5027687;28;20242;-71
2024/02/11 08:48:06;;;;;;;14.37;5.67;;;7.30;85.60;;;;;;5027454;28;20895;-73
2024/02/11 08:50:31;;;;;;;13.27;5.17;;;7.40;85.70;;;;;;5020328;28;20645;-74
2024/02/11 08:52:57;;;;;;;9.27;4.70;;;7.40;85.70;;;;;;5025353;28;20431;-72
2024/02/11 08:55:23;;;;;;;10.03;4.90;;;7.50;85.60;;;;;;5026055;28;20192;-73
2024/02/11 08:57:48;;;;;;;10.67;4.70;;;7.60;85.70;;;;;;5027389;28;20205;-71
2024/02/11 09:00:16;;;;;;;10.77;5.20;;;7.70;85.30;;;;;;5024863;28;20783;-75
2024/02/11 09:02:42;;;;;;;9.63;5.43;;;7.70;84.90;;;;;;5025611;28;20927;-72
2024/02/11 09:05:08;;;;;;;7.57;4.47;;;7.70;84.90;;;;;;5023722;28;20415;-72
2024/02/11 09:07:34;;;;;;;9.00;4.40;;;7.80;84.60;;;;;;5024919;28;20439;-73
2024/02/11 09:10:05;;;;;;;7.80;4.00;;;7.70;84.30;;;;;;5025397;28;20432;-72
2024/02/11 09:12:30;;;;;;;7.67;4.63;;;7.70;84.60;;;;;;5021774;28;20255;-72
2024/02/11 09:14:56;;;;;;;10.63;4.80;;;7.80;84.60;;;;;;5021785;28;20502;-72
2024/02/11 09:17:22;;;;;;;12.77;4.47;;;7.90;84.60;;;;;;5029609;28;20225;-71
2024/02/11 09:19:48;;;;;;;8.37;4.50;;;7.90;84.10;;;;;;5024967;28;20661;-71
2024/02/11 09:22:13;;;;;;;8.27;4.20;;;8.00;84.40;;;;;;5018787;28;20212;-71
2024/02/11 09:24:39;;;;;;;8.30;4.67;;;8.00;84.30;;;;;;5032127;28;20362;-72
2024/02/11 09:27:07;;;;;;;8.33;4.53;;;8.00;84.30;;;;;;5036161;28;20192;-72
2024/02/11 09:29:33;;;;;;;9.47;5.13;;;8.00;84.30;;;;;;5035809;28;20185;-71
2024/02/11 09:31:59;;;;;;;8.17;4.60;;;8.00;84.10;;;;;;5027754;28;20592;-71
2024/02/11 09:34:24;;;;;;;12.43;4.80;;;8.10;84.10;;;;;;5033371;28;20470;-71
2024/02/11 09:36:53;;;;;;;7.93;3.90;;;8.10;84.10;;;;;;5035128;28;20575;-72
2024/02/11 09:39:19;;;;;;;7.90;4.00;;;8.20;83.70;;;;;;5035340;28;20176;-71
2024/02/11 09:41:45;;;;;;;10.27;4.23;;;8.20;83.70;;;;;;5028322;28;20530;-71
2024/02/11 09:44:15;;;;;;;7.83;4.30;;;8.30;83.40;;;;;;5031845;28;20185;-72
2024/02/11 09:46:41;;;;;;;11.63;5.80;;;8.30;83.30;;;;;;5036014;28;20430;-72
2024/02/11 09:49:10;;;;;;;7.43;3.80;;;8.40;83.30;;;;;;5035755;28;20434;-72
2024/02/11 09:51:37;;;;;;;8.37;4.60;;;8.30;82.70;;;;;;5029774;28;21086;-71
2024/02/11 09:54:06;;;;;;;6.63;4.03;;;8.40;82.80;;;;;;5034163;28;20451;-72
2024/02/11 09:56:32;;;;;;;8.27;4.37;;;8.40;82.50;;;;;;5036401;28;20491;-72
2024/02/11 09:58:58;;;;;;;9.50;4.50;;;8.40;83.00;;;;;;5030012;28;20437;-71
2024/02/11 10:01:24;;;;;;;8.03;4.03;;;8.50;83.00;;;;;;5030857;28;20468;-72
2024/02/11 10:03:54;;;;;;;12.30;4.40;;;8.60;82.70;;;;;;5029695;28;20218;-71
2024/02/11 10:06:27;;;;;;;7.97;4.70;;;8.70;81.90;;;;;;5035608;28;20447;-71
2024/02/11 10:08:54;;;;;;;11.13;4.40;;;8.80;82.10;;;;;;5035307;28;20439;-72
2024/02/11 10:11:20;;;;;;;9.33;4.10;;;8.80;81.70;;;;;;5031035;28;20463;-71
2024/02/11 10:13:45;;;;;;;8.63;3.80;;;8.80;81.70;;;;;;5026575;28;20431;-72
2024/02/11 10:16:12;;;;;;;10.50;4.30;;;8.90;81.70;;;;;;5036256;28;20459;-72
2024/02/11 10:18:39;;;;;;;8.40;4.67;;;8.80;81.20;;;;;;5034871;28;20702;-72
2024/02/11 10:21:08;;;;;;;8.27;3.80;;;8.90;81.50;;;;;;5030667;28;20589;-73
2024/02/11 10:23:38;;;;;;;9.23;4.27;;;9.00;80.60;;;;;;5021857;28;20763;-72
2024/02/11 10:26:07;;;;;;;10.63;4.50;;;9.00;80.90;;;;;;5033875;28;20459;-71
2024/02/11 10:28:37;;;;;;;8.70;4.90;;;9.10;80.00;;;;;;5035616;28;20419;-71
2024/02/11 10:31:03;;;;;;;11.50;5.00;;;9.10;80.20;;;;;;5031340;28;20555;-72
2024/02/11 10:33:29;;;;;;;6.73;4.20;;;9.10;79.90;;;;;;5025482;28;20448;-72
2024/02/11 10:36:02;;;;;;;6.63;4.40;;;9.10;79.60;;;;;;5027375;28;20524;-72
2024/02/11 10:38:27;;;;;;;8.53;3.50;;;9.20;80.00;;;;;;5026584;28;20232;-72
2024/02/11 10:40:54;;;;;;;8.60;3.47;;;9.30;79.00;;;;;;5030656;28;20479;-71
2024/02/11 10:43:24;;;;;;;9.23;5.17;;;9.30;79.20;;;;;;5037122;28;20181;-71
2024/02/11 10:45:51;;;;;;;7.17;4.20;;;9.30;78.90;;;;;;5028042;28;20448;-71
2024/02/11 10:48:19;;;;;;;10.80;5.60;;;9.30;78.40;;;;;;5030843;28;20451;-72
2024/02/11 10:50:54;;;;;;;9.10;4.70;;;9.40;78.40;;;;;;5029577;28;20463;-71
2024/02/11 10:53:23;;;;;;;6.40;4.37;;;9.50;79.20;;;;;;5022000;28;20478;-71
2024/02/11 10:55:50;;;;;;;7.77;4.00;;;9.50;78.30;;;;;;5031371;28;20424;-72
2024/02/11 10:58:18;;;;;;;12.07;4.27;;;9.60;77.80;;;;;;5032348;28;20471;-73
2024/02/11 11:00:47;;;;;;;9.63;4.27;;;9.70;77.60;;;;;;5029653;28;20463;-73
2024/02/11 11:03:16;;;;;;;7.50;4.13;;;9.70;77.00;;;;;;5028613;28;20471;-73
2024/02/11 11:05:42;;;;;;;7.07;3.70;;;9.70;77.30;;;;;;5033235;28;20933;-73
2024/02/11 11:08:10;;;;;;;11.13;3.97;;;9.70;76.70;;;;;;5034912;28;20435;-72
2024/02/11 11:10:37;;;;;;;7.40;4.00;;;9.60;77.10;;;;;;5030555;28;20459;-73
2024/02/11 11:13:02;;;;;;;5.27;2.80;;;9.70;77.30;;;;;;5031276;28;20803;-72
2024/02/11 11:15:32;;;;;;;5.17;3.77;;;9.70;76.50;;;;;;5029525;28;20428;-73
2024/02/11 11:18:02;;;;;;;7.20;3.40;;;9.60;77.00;;;;;;5027558;28;20213;-73
2024/02/11 11:20:29;;;;;;;10.03;4.40;;;9.50;77.00;;;;;;5026809;28;20497;-73
2024/02/11 11:22:55;;;;;;;6.27;3.90;;;9.50;77.60;;;;;;5029759;28;20815;-73
2024/02/11 11:25:25;;;;;;;6.33;3.40;;;9.70;77.60;;;;;;5030758;28;20423;-72
2024/02/11 11:27:51;;;;;;;8.70;4.07;;;9.70;76.40;;;;;;5027743;28;20435;-74
2024/02/11 11:30:17;;;;;;;6.00;3.40;;;9.60;76.50;;;;;;5028683;28;20448;-72
2024/02/11 11:32:49;;;;;;;10.87;4.13;;;9.60;76.80;;;;;;5025296;28;20189;-71
2024/02/11 11:35:16;;;;;;;5.00;3.00;;;9.70;76.80;;;;;;5026500;28;20495;-72
2024/02/11 11:37:42;;;;;;;10.77;4.40;;;9.70;75.90;;;;;;5031551;28;20525;-72
2024/02/11 11:40:08;;;;;;;5.43;3.63;;;9.80;76.40;;;;;;5030383;28;20840;-72
2024/02/11 11:42:34;;;;;;;8.67;4.30;;;9.90;76.40;;;;;;5022795;28;20475;-72
2024/02/11 11:45:10;;;;;;;7.10;3.50;;;10.00;75.70;;;;;;5027649;28;20420;-72
2024/02/11 11:47:37;;;;;;;6.33;3.40;;;10.00;75.50;;;;;;5024630;28;20506;-72
2024/02/11 11:50:06;;;;;;;5.30;3.20;;;10.00;75.10;;;;;;5026008;28;20482;-73
2024/02/11 11:52:35;;;;;;;3.90;2.77;;;10.00;74.90;;;;;;5018294;28;20462;-73
2024/02/11 11:55:04;;;;;;;4.80;2.90;;;10.20;74.80;;;;;;5025142;28;20443;-72
2024/02/11 11:57:31;;;;;;;6.70;3.10;;;10.50;73.70;;;;;;5020029;28;20838;-72
2024/02/11 11:59:58;;;;;;;6.40;3.20;;;10.80;72.60;;;;;;5030172;28;20420;-73
2024/02/11 12:02:29;;;;;;;7.20;3.43;;;11.10;72.30;;;;;;5020167;28;20437;-71
2024/02/11 12:04:54;;;;;;;3.43;2.30;;;11.40;70.20;;;;;;5026494;28;20425;-71
2024/02/11 12:07:21;;;;;;;5.27;3.17;;;11.30;69.40;;;;;;5030799;28;20600;-72
2024/02/11 12:09:51;;;;;;;7.53;3.47;;;11.20;70.10;;;;;;5024953;28;20210;-72
2024/02/11 12:12:16;;;;;;;4.20;2.47;;;11.20;70.20;;;;;;5021064;28;20846;-72
2024/02/11 12:14:42;;;;;;;4.53;2.47;;;10.90;68.90;;;;;;5028847;28;20428;-72
2024/02/11 12:17:09;;;;;;;4.03;2.60;;;10.80;69.80;;;;;;5030801;28;20212;-73
2024/02/11 12:19:38;;;;;;;3.17;1.97;;;10.80;69.70;;;;;;5026342;28;20425;-73
2024/02/11 12:22:06;;;;;;;3.40;1.90;;;10.80;68.80;;;;;;5023640;28;21070;-73
2024/02/11 12:24:38;;;;;;;5.50;2.80;;;10.90;69.40;;;;;;5027128;28;20538;-72
2024/02/11 12:27:05;;;;;;;3.47;2.10;;;11.30;69.10;;;;;;5031871;28;20428;-72
2024/02/11 12:29:31;;;;;;;4.73;2.00;;;11.30;67.60;;;;;;5032059;28;20416;-72
2024/02/11 12:31:57;;;;;;;3.87;2.10;;;11.00;68.00;;;;;;5026104;28;20554;-71
2024/02/11 12:34:29;;;;;;;2.10;1.60;;;10.90;68.80;;;;;;5026266;28;20511;-73
2024/02/11 12:37:03;;;;;;;3.80;1.90;;;10.70;68.50;;;;;;5029521;28;20216;-72
2024/02/11 12:39:32;;;;;;;3.30;2.03;;;10.90;68.80;;;;;;5030343;28;20416;-71
2024/02/11 12:41:58;;;;;;;2.23;1.73;;;10.90;68.80;;;;;;5026154;28;21006;-72
2024/02/11 12:44:28;;;;;;;2.57;1.90;;;10.60;69.70;;;;;;5028877;28;20518;-72
2024/02/11 12:46:53;;;;;;;2.10;1.70;;;10.60;70.50;;;;;;5028066;28;20404;-71